sensor_id;sensor_type;location;lat;lon;timestamp;temperature;humidity
14934;DHT22;7560;51.364;12.384;2023-12-20T00:01:52;6.50;99.90
14934;DHT22;7560;51.364;12.384;2023-12-20T00:06:54;6.50;99.90
14934;DHT22;7560;51.364;12.384;2023-12-20T00:11:56;6.50;99.90
14934;DHT22;7560;51.364;12.384;2023-12-20T00:16:58;6.50;99.90
14934;DHT22;7560;51.364;12.384;2023-12-20T00:22:00;6.50;99.90
14934;DHT22;7560;51.364;12.384;2023-12-20T00:27:02;6.50;99.90
14934;DHT22;7560;51.364;12.384;2023-12-20T00:32:04;6.50;99.90
14934;DHT22;7560;51.364;12.384;2023-12-20T00:37:06;6.40;99.90
14934;DHT22;7560;51.364;12.384;2023-12-20T00:42:07;6.40;99.90
14934;DHT22;7560;51.364;12.384;2023-12-20T00:47:09;6.50;99.90
14934;DHT22;7560;51.364;12.384;2023-12-20T00:52:11;6.40;99.90
14934;DHT22;7560;51.364;12.384;2023-12-20T00:57:13;6.40;99.90
14934;DHT22;7560;51.364;12.384;2023-12-20T01:02:15;6.40;99.90
14934;DHT22;7560;51.364;12.384;2023-12-20T01:07:16;6.40;99.90
14934;DHT22;7560;51.364;12.384;2023-12-20T01:12:18;6.40;99.90
14934;DHT22;7560;51.364;12.384;2023-12-20T01:17:21;6.40;99.90
14934;DHT22;7560;51.364;12.384;2023-12-20T01:22:23;6.40;99.90
14934;DHT22;7560;51.364;12.384;2023-12-20T01:27:25;6.40;99.90
14934;DHT22;7560;51.364;12.384;2023-12-20T01:32:27;6.40;99.90
14934;DHT22;7560;51.364;12.384;2023-12-20T01:37:29;6.40;99.90
14934;DHT22;7560;51.364;12.384;2023-12-20T01:42:31;6.30;99.90
14934;DHT22;7560;51.364;12.384;2023-12-20T01:47:33;6.40;99.90
14934;DHT22;7560;51.364;12.384;2023-12-20T01:52:35;6.40;99.90
14934;DHT22;7560;51.364;12.384;2023-12-20T01:57:37;6.30;99.90
14934;DHT22;7560;51.364;12.384;2023-12-20T02:02:40;6.40;99.90
14934;DHT22;7560;51.364;12.384;2023-12-20T02:07:42;6.30;99.90
14934;DHT22;7560;51.364;12.384;2023-12-20T02:12:44;6.30;99.90
14934;DHT22;7560;51.364;12.384;2023-12-20T02:17:47;6.30;99.90
14934;DHT22;7560;51.364;12.384;2023-12-20T02:22:50;6.40;99.90
14934;DHT22;7560;51.364;12.384;2023-12-20T02:27:52;6.30;99.90
14934;DHT22;7560;51.364;12.384;2023-12-20T02:32:54;6.30;99.90
14934;DHT22;7560;51.364;12.384;2023-12-20T02:37:56;6.30;99.90
14934;DHT22;7560;51.364;12.384;2023-12-20T02:42:57;6.30;99.90
14934;DHT22;7560;51.364;12.384;2023-12-20T02:47:59;6.30;99.90
14934;DHT22;7560;51.364;12.384;2023-12-20T02:53:01;6.30;99.90
14934;DHT22;7560;51.364;12.384;2023-12-20T02:58:03;6.30;99.90
14934;DHT22;7560;51.364;12.384;2023-12-20T03:03:05;6.30;99.90
14934;DHT22;7560;51.364;12.384;2023-12-20T03:08:06;6.30;99.90
14934;DHT22;7560;51.364;12.384;2023-12-20T03:13:08;6.30;99.90
14934;DHT22;7560;51.364;12.384;2023-12-20T03:18:10;6.30;99.90
14934;DHT22;7560;51.364;12.384;2023-12-20T03:23:12;6.30;99.90
14934;DHT22;7560;51.364;12.384;2023-12-20T03:28:15;6.30;99.90
14934;DHT22;7560;51.364;12.384;2023-12-20T03:33:17;6.30;99.90
14934;DHT22;7560;51.364;12.384;2023-12-20T03:38:19;6.30;99.90
14934;DHT22;7560;51.364;12.384;2023-12-20T03:43:20;6.30;99.90
14934;DHT22;7560;51.364;12.384;2023-12-20T03:48:22;6.40;99.90
14934;DHT22;7560;51.364;12.384;2023-12-20T03:53:24;6.40;99.90
14934;DHT22;7560;51.364;12.384;2023-12-20T03:58:26;6.40;99.90
14934;DHT22;7560;51.364;12.384;2023-12-20T04:03:28;6.40;99.90
14934;DHT22;7560;51.364;12.384;2023-12-20T04:08:30;6.30;99.90
14934;DHT22;7560;51.364;12.384;2023-12-20T04:13:31;6.30;99.90
14934;DHT22;7560;51.364;12.384;2023-12-20T04:18:33;6.30;99.90
14934;DHT22;7560;51.364;12.384;2023-12-20T04:23:35;6.20;99.90
14934;DHT22;7560;51.364;12.384;2023-12-20T04:28:37;6.20;99.90
14934;DHT22;7560;51.364;12.384;2023-12-20T04:33:39;6.30;99.90
14934;DHT22;7560;51.364;12.384;2023-12-20T04:38:40;6.20;99.90
14934;DHT22;7560;51.364;12.384;2023-12-20T04:43:42;6.30;99.90
14934;DHT22;7560;51.364;12.384;2023-12-20T04:48:44;6.30;99.90
14934;DHT22;7560;51.364;12.384;2023-12-20T04:53:46;6.30;99.90
14934;DHT22;7560;51.364;12.384;2023-12-20T04:58:47;6.40;99.90
14934;DHT22;7560;51.364;12.384;2023-12-20T05:03:50;6.40;99.90
14934;DHT22;7560;51.364;12.384;2023-12-20T05:08:51;6.50;99.90
14934;DHT22;7560;51.364;12.384;2023-12-20T05:13:53;6.40;99.90
14934;DHT22;7560;51.364;12.384;2023-12-20T05:18:55;6.50;99.90
14934;DHT22;7560;51.364;12.384;2023-12-20T05:23:57;6.50;99.90
14934;DHT22;7560;51.364;12.384;2023-12-20T05:28:59;6.40;99.90
14934;DHT22;7560;51.364;12.384;2023-12-20T05:34:01;6.60;99.90
14934;DHT22;7560;51.364;12.384;2023-12-20T05:39:03;6.50;99.90
14934;DHT22;7560;51.364;12.384;2023-12-20T05:44:05;6.60;99.90
14934;DHT22;7560;51.364;12.384;2023-12-20T05:49:07;6.50;99.90
14934;DHT22;7560;51.364;12.384;2023-12-20T05:54:09;6.50;99.90
14934;DHT22;7560;51.364;12.384;2023-12-20T05:59:11;6.50;99.90
14934;DHT22;7560;51.364;12.384;2023-12-20T06:04:13;6.50;99.90
14934;DHT22;7560;51.364;12.384;2023-12-20T06:09:14;6.60;99.90
14934;DHT22;7560;51.364;12.384;2023-12-20T06:14:16;6.60;99.90
14934;DHT22;7560;51.364;12.384;2023-12-20T06:19:19;6.40;99.90
14934;DHT22;7560;51.364;12.384;2023-12-20T06:24:20;6.20;99.90
14934;DHT22;7560;51.364;12.384;2023-12-20T06:29:23;6.10;99.90
14934;DHT22;7560;51.364;12.384;2023-12-20T06:34:24;5.90;99.90
14934;DHT22;7560;51.364;12.384;2023-12-20T06:39:26;5.70;99.90
14934;DHT22;7560;51.364;12.384;2023-12-20T06:44:29;5.60;99.90
14934;DHT22;7560;51.364;12.384;2023-12-20T06:49:31;5.60;99.90
14934;DHT22;7560;51.364;12.384;2023-12-20T06:54:33;5.60;99.90
14934;DHT22;7560;51.364;12.384;2023-12-20T06:59:40;5.70;99.90
14934;DHT22;7560;51.364;12.384;2023-12-20T07:04:42;5.90;99.90
14934;DHT22;7560;51.364;12.384;2023-12-20T07:09:44;6.00;99.90
14934;DHT22;7560;51.364;12.384;2023-12-20T07:14:46;5.90;99.90
14934;DHT22;7560;51.364;12.384;2023-12-20T07:19:48;5.80;99.90
14934;DHT22;7560;51.364;12.384;2023-12-20T07:24:50;5.80;99.90
14934;DHT22;7560;51.364;12.384;2023-12-20T07:29:54;5.90;99.90
14934;DHT22;7560;51.364;12.384;2023-12-20T07:34:55;6.00;99.90
14934;DHT22;7560;51.364;12.384;2023-12-20T07:39:57;6.10;99.90
14934;DHT22;7560;51.364;12.384;2023-12-20T07:44:59;6.20;99.90
14934;DHT22;7560;51.364;12.384;2023-12-20T07:50:01;6.30;99.90
14934;DHT22;7560;51.364;12.384;2023-12-20T07:55:04;6.40;99.90
14934;DHT22;7560;51.364;12.384;2023-12-20T08:00:07;6.50;99.90
14934;DHT22;7560;51.364;12.384;2023-12-20T08:05:09;6.50;99.90
14934;DHT22;7560;51.364;12.384;2023-12-20T08:10:11;6.40;99.90
14934;DHT22;7560;51.364;12.384;2023-12-20T08:15:12;6.50;99.90
14934;DHT22;7560;51.364;12.384;2023-12-20T08:20:16;6.40;99.90
14934;DHT22;7560;51.364;12.384;2023-12-20T08:25:27;6.50;99.90
14934;DHT22;7560;51.364;12.384;2023-12-20T08:30:29;6.70;99.90
14934;DHT22;7560;51.364;12.384;2023-12-20T08:35:32;6.70;99.90
14934;DHT22;7560;51.364;12.384;2023-12-20T08:40:34;6.80;99.90
14934;DHT22;7560;51.364;12.384;2023-12-20T08:45:36;6.70;99.90
14934;DHT22;7560;51.364;12.384;2023-12-20T08:50:38;6.80;99.90
14934;DHT22;7560;51.364;12.384;2023-12-20T08:55:41;6.70;99.90
14934;DHT22;7560;51.364;12.384;2023-12-20T09:00:43;6.60;99.90
14934;DHT22;7560;51.364;12.384;2023-12-20T09:05:45;6.50;99.90
14934;DHT22;7560;51.364;12.384;2023-12-20T09:10:46;6.50;99.90
14934;DHT22;7560;51.364;12.384;2023-12-20T09:15:48;6.60;99.90
14934;DHT22;7560;51.364;12.384;2023-12-20T09:20:50;6.60;99.90
14934;DHT22;7560;51.364;12.384;2023-12-20T09:25:52;6.60;99.90
14934;DHT22;7560;51.364;12.384;2023-12-20T09:30:58;6.70;99.90
14934;DHT22;7560;51.364;12.384;2023-12-20T09:36:00;6.70;99.90
14934;DHT22;7560;51.364;12.384;2023-12-20T09:41:02;6.60;99.90
14934;DHT22;7560;51.364;12.384;2023-12-20T09:46:06;6.60;99.90
14934;DHT22;7560;51.364;12.384;2023-12-20T09:51:09;6.70;99.90
14934;DHT22;7560;51.364;12.384;2023-12-20T09:56:11;6.70;99.90
14934;DHT22;7560;51.364;12.384;2023-12-20T10:01:15;6.80;99.90
14934;DHT22;7560;51.364;12.384;2023-12-20T10:06:17;6.90;99.90
14934;DHT22;7560;51.364;12.384;2023-12-20T10:11:19;7.20;99.90
14934;DHT22;7560;51.364;12.384;2023-12-20T10:16:24;7.50;99.90
14934;DHT22;7560;51.364;12.384;2023-12-20T10:21:27;7.50;99.90
14934;DHT22;7560;51.364;12.384;2023-12-20T10:26:29;7.60;99.90
14934;DHT22;7560;51.364;12.384;2023-12-20T10:31:34;7.40;99.90
14934;DHT22;7560;51.364;12.384;2023-12-20T10:36:36;7.50;99.90
14934;DHT22;7560;51.364;12.384;2023-12-20T10:41:39;7.60;99.90
14934;DHT22;7560;51.364;12.384;2023-12-20T10:46:43;7.70;99.90
14934;DHT22;7560;51.364;12.384;2023-12-20T10:51:53;7.80;99.90
14934;DHT22;7560;51.364;12.384;2023-12-20T10:56:57;7.80;99.90
14934;DHT22;7560;51.364;12.384;2023-12-20T11:02:00;8.00;99.90
14934;DHT22;7560;51.364;12.384;2023-12-20T11:07:21;8.10;99.90
14934;DHT22;7560;51.364;12.384;2023-12-20T11:12:32;8.20;99.90
14934;DHT22;7560;51.364;12.384;2023-12-20T11:17:39;8.20;99.90
14934;DHT22;7560;51.364;12.384;2023-12-20T11:22:53;8.20;99.90
14934;DHT22;7560;51.364;12.384;2023-12-20T11:28:11;8.30;99.90
14934;DHT22;7560;51.364;12.384;2023-12-20T11:33:17;8.20;99.90
14934;DHT22;7560;51.364;12.384;2023-12-20T11:38:23;8.30;99.90
14934;DHT22;7560;51.364;12.384;2023-12-20T11:43:36;8.40;99.90
14934;DHT22;7560;51.364;12.384;2023-12-20T11:48:41;8.30;99.90
14934;DHT22;7560;51.364;12.384;2023-12-20T11:53:51;8.30;99.90
14934;DHT22;7560;51.364;12.384;2023-12-20T11:58:56;8.30;99.90
14934;DHT22;7560;51.364;12.384;2023-12-20T12:04:10;8.20;99.90
14934;DHT22;7560;51.364;12.384;2023-12-20T12:09:12;8.30;99.90
14934;DHT22;7560;51.364;12.384;2023-12-20T12:14:14;8.40;99.90
14934;DHT22;7560;51.364;12.384;2023-12-20T12:19:23;8.30;99.90
14934;DHT22;7560;51.364;12.384;2023-12-20T12:24:25;8.40;99.90
14934;DHT22;7560;51.364;12.384;2023-12-20T12:29:27;8.30;99.90
14934;DHT22;7560;51.364;12.384;2023-12-20T12:34:29;8.30;99.90
14934;DHT22;7560;51.364;12.384;2023-12-20T12:39:31;8.50;99.90
14934;DHT22;7560;51.364;12.384;2023-12-20T12:44:33;8.40;99.90
14934;DHT22;7560;51.364;12.384;2023-12-20T12:49:35;8.20;99.90
14934;DHT22;7560;51.364;12.384;2023-12-20T12:54:37;8.20;99.90
14934;DHT22;7560;51.364;12.384;2023-12-20T12:59:39;8.30;99.90
14934;DHT22;7560;51.364;12.384;2023-12-20T13:04:42;8.30;99.90
14934;DHT22;7560;51.364;12.384;2023-12-20T13:09:44;8.30;99.90
14934;DHT22;7560;51.364;12.384;2023-12-20T13:14:46;8.10;99.90
14934;DHT22;7560;51.364;12.384;2023-12-20T13:19:48;8.00;99.90
14934;DHT22;7560;51.364;12.384;2023-12-20T13:24:51;7.90;99.90
14934;DHT22;7560;51.364;12.384;2023-12-20T13:29:53;7.80;99.90
14934;DHT22;7560;51.364;12.384;2023-12-20T13:34:55;7.90;99.90
14934;DHT22;7560;51.364;12.384;2023-12-20T13:39:57;7.90;99.90
14934;DHT22;7560;51.364;12.384;2023-12-20T13:44:59;7.80;99.90
14934;DHT22;7560;51.364;12.384;2023-12-20T13:50:02;7.90;99.90
14934;DHT22;7560;51.364;12.384;2023-12-20T13:55:04;7.90;99.90
14934;DHT22;7560;51.364;12.384;2023-12-20T14:00:10;7.90;99.90
14934;DHT22;7560;51.364;12.384;2023-12-20T14:05:17;8.10;99.90
14934;DHT22;7560;51.364;12.384;2023-12-20T14:10:19;8.20;99.90
14934;DHT22;7560;51.364;12.384;2023-12-20T14:15:21;8.20;99.90
14934;DHT22;7560;51.364;12.384;2023-12-20T14:20:26;8.10;99.90
14934;DHT22;7560;51.364;12.384;2023-12-20T14:25:28;8.00;99.90
14934;DHT22;7560;51.364;12.384;2023-12-20T14:30:36;7.90;99.90
14934;DHT22;7560;51.364;12.384;2023-12-20T14:35:39;7.80;99.90
14934;DHT22;7560;51.364;12.384;2023-12-20T14:40:45;7.70;99.90
14934;DHT22;7560;51.364;12.384;2023-12-20T14:45:47;7.60;99.90
14934;DHT22;7560;51.364;12.384;2023-12-20T14:50:49;7.60;99.90
14934;DHT22;7560;51.364;12.384;2023-12-20T14:55:52;7.60;99.90
14934;DHT22;7560;51.364;12.384;2023-12-20T15:00:53;7.60;99.90
14934;DHT22;7560;51.364;12.384;2023-12-20T15:05:55;7.70;99.90
14934;DHT22;7560;51.364;12.384;2023-12-20T15:11:00;7.70;99.90
14934;DHT22;7560;51.364;12.384;2023-12-20T15:16:04;7.70;99.90
14934;DHT22;7560;51.364;12.384;2023-12-20T15:21:06;7.70;99.90
14934;DHT22;7560;51.364;12.384;2023-12-20T15:26:08;7.60;99.90
14934;DHT22;7560;51.364;12.384;2023-12-20T15:31:09;7.60;99.90
14934;DHT22;7560;51.364;12.384;2023-12-20T15:36:11;7.70;99.90
14934;DHT22;7560;51.364;12.384;2023-12-20T15:41:20;7.60;99.90
14934;DHT22;7560;51.364;12.384;2023-12-20T15:46:22;7.60;99.90
14934;DHT22;7560;51.364;12.384;2023-12-20T15:51:24;7.50;99.90
14934;DHT22;7560;51.364;12.384;2023-12-20T15:56:26;7.50;99.90
14934;DHT22;7560;51.364;12.384;2023-12-20T16:01:29;7.50;99.90
14934;DHT22;7560;51.364;12.384;2023-12-20T16:06:32;7.50;99.90
14934;DHT22;7560;51.364;12.384;2023-12-20T16:11:36;7.50;99.90
14934;DHT22;7560;51.364;12.384;2023-12-20T16:16:38;7.50;99.90
14934;DHT22;7560;51.364;12.384;2023-12-20T16:21:39;7.60;99.90
14934;DHT22;7560;51.364;12.384;2023-12-20T16:26:42;7.50;99.90
14934;DHT22;7560;51.364;12.384;2023-12-20T16:31:44;7.50;99.90
14934;DHT22;7560;51.364;12.384;2023-12-20T16:36:50;7.50;99.90
14934;DHT22;7560;51.364;12.384;2023-12-20T16:41:52;7.40;99.90
14934;DHT22;7560;51.364;12.384;2023-12-20T16:46:54;7.20;99.90
14934;DHT22;7560;51.364;12.384;2023-12-20T16:51:56;6.80;99.90
14934;DHT22;7560;51.364;12.384;2023-12-20T16:56:58;6.60;99.90
14934;DHT22;7560;51.364;12.384;2023-12-20T17:02:00;6.50;99.90
14934;DHT22;7560;51.364;12.384;2023-12-20T17:07:05;6.50;99.90
14934;DHT22;7560;51.364;12.384;2023-12-20T17:12:07;6.50;99.90
14934;DHT22;7560;51.364;12.384;2023-12-20T17:17:11;6.50;99.90
14934;DHT22;7560;51.364;12.384;2023-12-20T17:22:13;6.60;99.90
14934;DHT22;7560;51.364;12.384;2023-12-20T17:27:15;6.60;99.90
14934;DHT22;7560;51.364;12.384;2023-12-20T17:32:16;6.40;99.90
14934;DHT22;7560;51.364;12.384;2023-12-20T17:37:18;6.40;99.90
14934;DHT22;7560;51.364;12.384;2023-12-20T17:42:20;6.30;99.90
14934;DHT22;7560;51.364;12.384;2023-12-20T17:47:22;6.40;99.90
14934;DHT22;7560;51.364;12.384;2023-12-20T17:52:24;6.30;99.90
14934;DHT22;7560;51.364;12.384;2023-12-20T17:57:26;6.30;99.90
14934;DHT22;7560;51.364;12.384;2023-12-20T18:02:30;6.20;99.90
14934;DHT22;7560;51.364;12.384;2023-12-20T18:07:32;6.30;99.90
14934;DHT22;7560;51.364;12.384;2023-12-20T18:12:34;6.40;99.90
14934;DHT22;7560;51.364;12.384;2023-12-20T18:17:36;6.40;99.90
14934;DHT22;7560;51.364;12.384;2023-12-20T18:22:38;6.40;99.90
14934;DHT22;7560;51.364;12.384;2023-12-20T18:27:40;6.50;99.90
14934;DHT22;7560;51.364;12.384;2023-12-20T18:32:42;6.50;99.90
14934;DHT22;7560;51.364;12.384;2023-12-20T18:37:43;6.70;99.90
14934;DHT22;7560;51.364;12.384;2023-12-20T18:42:45;6.60;99.90
14934;DHT22;7560;51.364;12.384;2023-12-20T18:47:47;6.70;99.90
14934;DHT22;7560;51.364;12.384;2023-12-20T18:52:49;6.60;99.90
14934;DHT22;7560;51.364;12.384;2023-12-20T18:57:51;6.70;99.90
14934;DHT22;7560;51.364;12.384;2023-12-20T19:02:53;6.70;99.90
14934;DHT22;7560;51.364;12.384;2023-12-20T19:07:56;6.70;99.90
14934;DHT22;7560;51.364;12.384;2023-12-20T19:12:57;6.70;99.90
14934;DHT22;7560;51.364;12.384;2023-12-20T19:17:59;6.80;99.90
14934;DHT22;7560;51.364;12.384;2023-12-20T19:23:01;6.80;99.90
14934;DHT22;7560;51.364;12.384;2023-12-20T19:28:03;6.80;99.90
14934;DHT22;7560;51.364;12.384;2023-12-20T19:33:05;6.90;99.90
14934;DHT22;7560;51.364;12.384;2023-12-20T19:38:07;6.90;99.90
14934;DHT22;7560;51.364;12.384;2023-12-20T19:43:09;7.00;99.90
14934;DHT22;7560;51.364;12.384;2023-12-20T19:48:10;7.00;99.90
14934;DHT22;7560;51.364;12.384;2023-12-20T19:53:13;7.00;99.90
14934;DHT22;7560;51.364;12.384;2023-12-20T19:58:15;7.10;99.90
14934;DHT22;7560;51.364;12.384;2023-12-20T20:03:17;7.10;99.90
14934;DHT22;7560;51.364;12.384;2023-12-20T20:08:19;7.20;99.90
14934;DHT22;7560;51.364;12.384;2023-12-20T20:13:21;7.20;99.90
14934;DHT22;7560;51.364;12.384;2023-12-20T20:18:22;7.20;99.90
14934;DHT22;7560;51.364;12.384;2023-12-20T20:23:24;7.20;99.90
14934;DHT22;7560;51.364;12.384;2023-12-20T20:28:26;7.20;99.90
14934;DHT22;7560;51.364;12.384;2023-12-20T20:33:30;7.30;99.90
14934;DHT22;7560;51.364;12.384;2023-12-20T20:38:32;7.30;99.90
14934;DHT22;7560;51.364;12.384;2023-12-20T20:43:34;7.40;99.90
14934;DHT22;7560;51.364;12.384;2023-12-20T20:48:36;7.40;99.90
14934;DHT22;7560;51.364;12.384;2023-12-20T20:53:51;7.40;99.90
14934;DHT22;7560;51.364;12.384;2023-12-20T20:59:09;7.50;99.90
14934;DHT22;7560;51.364;12.384;2023-12-20T21:04:10;7.50;99.90
14934;DHT22;7560;51.364;12.384;2023-12-20T21:09:13;7.50;99.90
14934;DHT22;7560;51.364;12.384;2023-12-20T21:14:14;7.50;99.90
14934;DHT22;7560;51.364;12.384;2023-12-20T21:19:16;7.50;99.90
14934;DHT22;7560;51.364;12.384;2023-12-20T21:24:18;7.50;99.90
14934;DHT22;7560;51.364;12.384;2023-12-20T21:29:20;7.50;99.90
14934;DHT22;7560;51.364;12.384;2023-12-20T21:34:21;7.50;99.90
14934;DHT22;7560;51.364;12.384;2023-12-20T21:39:23;7.50;99.90
14934;DHT22;7560;51.364;12.384;2023-12-20T21:44:28;7.50;99.90
14934;DHT22;7560;51.364;12.384;2023-12-20T21:49:30;7.60;99.90
14934;DHT22;7560;51.364;12.384;2023-12-20T21:54:32;7.60;99.90
14934;DHT22;7560;51.364;12.384;2023-12-20T21:59:34;7.60;99.90
14934;DHT22;7560;51.364;12.384;2023-12-20T22:04:36;7.60;99.90
14934;DHT22;7560;51.364;12.384;2023-12-20T22:09:38;7.70;99.90
14934;DHT22;7560;51.364;12.384;2023-12-20T22:14:41;7.70;99.90
14934;DHT22;7560;51.364;12.384;2023-12-20T22:19:43;7.70;99.90
14934;DHT22;7560;51.364;12.384;2023-12-20T22:24:45;7.70;99.90
14934;DHT22;7560;51.364;12.384;2023-12-20T22:29:46;7.70;99.90
14934;DHT22;7560;51.364;12.384;2023-12-20T22:34:48;7.70;99.90
14934;DHT22;7560;51.364;12.384;2023-12-20T22:39:50;7.70;99.90
14934;DHT22;7560;51.364;12.384;2023-12-20T22:44:52;7.70;99.90
14934;DHT22;7560;51.364;12.384;2023-12-20T22:49:56;7.70;99.90
14934;DHT22;7560;51.364;12.384;2023-12-20T22:54:58;7.70;99.90
14934;DHT22;7560;51.364;12.384;2023-12-20T23:00:01;7.60;99.90
14934;DHT22;7560;51.364;12.384;2023-12-20T23:05:03;7.60;99.90
14934;DHT22;7560;51.364;12.384;2023-12-20T23:10:06;7.70;99.90
14934;DHT22;7560;51.364;12.384;2023-12-20T23:15:08;7.70;99.90
14934;DHT22;7560;51.364;12.384;2023-12-20T23:20:10;7.70;99.90
14934;DHT22;7560;51.364;12.384;2023-12-20T23:25:12;7.70;99.90
14934;DHT22;7560;51.364;12.384;2023-12-20T23:30:14;7.70;99.90
14934;DHT22;7560;51.364;12.384;2023-12-20T23:35:16;7.70;99.90
14934;DHT22;7560;51.364;12.384;2023-12-20T23:40:18;7.70;99.90
14934;DHT22;7560;51.364;12.384;2023-12-20T23:45:20;7.80;99.90
14934;DHT22;7560;51.364;12.384;2023-12-20T23:50:22;7.80;99.90
14934;DHT22;7560;51.364;12.384;2023-12-20T23:55:25;7.80;99.90
